createdAt,value
2023-12-21T00:01:36.799Z,3.40
2023-12-21T00:04:05.108Z,3.40
2023-12-21T00:06:32.351Z,3.40
2023-12-21T00:08:59.546Z,3.50
2023-12-21T00:11:26.703Z,3.50
2023-12-21T00:13:53.774Z,3.50
2023-12-21T00:16:21.194Z,3.40
2023-12-21T00:18:48.296Z,3.40
2023-12-21T00:21:15.466Z,3.50
2023-12-21T00:23:42.571Z,3.40
2023-12-21T00:26:09.528Z,3.40
2023-12-21T00:28:37.027Z,3.50
2023-12-21T00:31:04.346Z,3.50
2023-12-21T00:33:31.565Z,3.50
2023-12-21T00:35:58.791Z,3.60
2023-12-21T00:38:25.697Z,3.50
2023-12-21T00:40:53.985Z,3.50
2023-12-21T00:43:20.963Z,3.50
2023-12-21T00:45:47.826Z,3.50
2023-12-21T00:48:16.259Z,3.50
2023-12-21T00:50:43.279Z,3.50
2023-12-21T00:53:10.160Z,3.50
2023-12-21T00:55:37.229Z,3.50
2023-12-21T00:58:04.475Z,3.50
2023-12-21T01:00:31.499Z,3.50
2023-12-21T01:02:59.303Z,3.50
2023-12-21T01:05:26.306Z,3.50
2023-12-21T01:07:53.232Z,3.60
2023-12-21T01:10:20.209Z,3.60
2023-12-21T01:12:47.062Z,3.60
2023-12-21T01:15:13.955Z,3.50
2023-12-21T01:17:40.847Z,3.50
2023-12-21T01:20:08.450Z,3.50
2023-12-21T01:22:35.426Z,3.50
2023-12-21T01:25:02.452Z,3.50
2023-12-21T01:27:32.765Z,3.50
2023-12-21T01:30:00.643Z,3.50
2023-12-21T01:32:27.637Z,3.50
2023-12-21T01:34:54.670Z,3.50
2023-12-21T01:37:21.788Z,3.50
2023-12-21T01:39:48.661Z,3.50
2023-12-21T01:42:15.482Z,3.50
2023-12-21T01:44:42.446Z,3.50
2023-12-21T01:47:10.788Z,3.50
2023-12-21T01:49:37.806Z,3.50
2023-12-21T01:52:06.680Z,3.50
2023-12-21T01:54:33.729Z,3.50
2023-12-21T01:57:00.658Z,3.60
2023-12-21T01:59:27.752Z,3.50
2023-12-21T02:01:54.667Z,3.60
2023-12-21T02:04:22.332Z,3.60
2023-12-21T02:06:49.364Z,3.60
2023-12-21T02:09:16.228Z,3.50
2023-12-21T02:11:43.046Z,3.50
2023-12-21T02:14:10.000Z,3.50
2023-12-21T02:16:57.138Z,3.60
2023-12-21T02:19:24.845Z,3.60
2023-12-21T02:21:55.564Z,3.50
2023-12-21T02:24:22.595Z,3.50
2023-12-21T02:26:49.933Z,3.50
2023-12-21T02:29:16.755Z,3.50
2023-12-21T02:31:43.825Z,3.60
2023-12-21T02:34:10.860Z,3.50
2023-12-21T02:36:37.808Z,3.60
2023-12-21T02:39:04.701Z,3.50
2023-12-21T02:41:31.518Z,3.60
2023-12-21T02:43:58.397Z,3.60
2023-12-21T02:46:26.708Z,3.60
2023-12-21T02:48:53.794Z,3.60
2023-12-21T02:51:20.842Z,3.60
2023-12-21T02:53:47.703Z,3.60
2023-12-21T02:56:14.576Z,3.60
2023-12-21T02:58:41.552Z,3.60
2023-12-21T03:01:08.646Z,3.60
2023-12-21T03:03:35.997Z,3.60
2023-12-21T03:06:02.994Z,3.60
2023-12-21T03:08:30.238Z,3.60
2023-12-21T03:10:57.309Z,3.60
2023-12-21T03:13:24.229Z,3.60
2023-12-21T03:15:51.151Z,3.60
2023-12-21T03:18:18.031Z,3.60
2023-12-21T03:20:44.881Z,3.60
2023-12-21T03:23:11.758Z,3.60
2023-12-21T03:25:38.733Z,3.60
2023-12-21T03:28:07.618Z,3.70
2023-12-21T03:30:34.606Z,3.70
2023-12-21T03:33:01.592Z,3.70
2023-12-21T03:35:28.511Z,3.70
2023-12-21T03:37:55.339Z,3.70
2023-12-21T03:40:22.255Z,3.70
2023-12-21T03:42:53.270Z,3.70
2023-12-21T03:45:20.761Z,3.70
2023-12-21T03:47:49.284Z,3.70
2023-12-21T03:50:16.347Z,3.70
2023-12-21T03:52:43.357Z,3.70
2023-12-21T03:55:10.384Z,3.70
2023-12-21T03:57:37.628Z,3.70
2023-12-21T04:00:07.038Z,3.70
2023-12-21T04:02:34.225Z,3.70
2023-12-21T04:05:01.729Z,3.70
2023-12-21T04:07:28.913Z,3.70
2023-12-21T04:09:55.779Z,3.80
2023-12-21T04:12:22.639Z,3.80
2023-12-21T04:14:49.471Z,3.80
2023-12-21T04:17:16.310Z,3.80
2023-12-21T04:19:43.319Z,3.80
2023-12-21T04:22:10.371Z,3.80
2023-12-21T04:24:37.249Z,3.80
2023-12-21T04:27:04.434Z,3.80
2023-12-21T04:29:31.324Z,3.80
2023-12-21T04:31:58.296Z,3.80
2023-12-21T04:34:25.210Z,3.80
2023-12-21T04:36:52.232Z,3.80
2023-12-21T04:39:19.079Z,3.80
2023-12-21T04:41:46.065Z,3.90
2023-12-21T04:44:13.025Z,3.80
2023-12-21T04:46:39.889Z,3.70
2023-12-21T04:49:07.584Z,3.80
2023-12-21T04:51:34.565Z,3.80
2023-12-21T04:54:01.497Z,3.80
2023-12-21T04:56:28.383Z,3.80
2023-12-21T04:58:55.178Z,3.80
2023-12-21T05:01:22.932Z,3.80
2023-12-21T05:03:49.962Z,3.80
2023-12-21T05:06:16.959Z,3.80
2023-12-21T05:08:43.828Z,3.80
2023-12-21T05:11:10.632Z,3.90
2023-12-21T05:13:37.592Z,3.80
2023-12-21T05:16:05.243Z,3.80
2023-12-21T05:18:32.113Z,3.90
2023-12-21T05:20:58.942Z,3.80
2023-12-21T05:23:25.798Z,3.90
2023-12-21T05:25:52.593Z,3.80
2023-12-21T05:28:19.442Z,3.80
2023-12-21T05:30:47.274Z,3.80
2023-12-21T05:33:14.753Z,3.90
2023-12-21T05:35:41.625Z,3.90
2023-12-21T05:38:08.452Z,3.90
2023-12-21T05:40:35.350Z,3.90
2023-12-21T05:43:02.294Z,3.90
2023-12-21T05:45:29.227Z,3.90
2023-12-21T05:47:59.952Z,3.90
2023-12-21T05:50:27.423Z,3.90
2023-12-21T05:52:54.261Z,3.90
2023-12-21T05:55:21.425Z,3.90
2023-12-21T05:57:48.347Z,3.90
2023-12-21T06:00:15.552Z,3.90
2023-12-21T06:02:42.423Z,4.00
2023-12-21T06:05:09.808Z,3.90
2023-12-21T06:07:36.901Z,4.00
2023-12-21T06:10:04.885Z,4.00
2023-12-21T06:12:31.721Z,3.90
2023-12-21T06:14:58.658Z,4.00
2023-12-21T06:17:25.535Z,4.00
2023-12-21T06:19:52.560Z,4.00
2023-12-21T06:22:19.650Z,4.00
2023-12-21T06:24:46.577Z,4.00
2023-12-21T06:27:13.508Z,4.00
2023-12-21T06:29:42.110Z,4.00
2023-12-21T06:32:08.938Z,4.00
2023-12-21T06:34:35.902Z,4.10
2023-12-21T06:37:04.770Z,4.00
2023-12-21T06:39:35.138Z,4.00
2023-12-21T06:42:02.796Z,4.00
2023-12-21T06:44:29.720Z,4.00
2023-12-21T06:46:57.607Z,4.00
2023-12-21T06:49:24.610Z,4.00
2023-12-21T06:51:51.698Z,4.00
2023-12-21T06:54:19.030Z,4.00
2023-12-21T06:56:45.865Z,4.10
2023-12-21T06:59:13.472Z,4.10
2023-12-21T07:01:40.427Z,4.10
2023-12-21T07:04:09.672Z,4.10
2023-12-21T07:06:36.680Z,4.10
2023-12-21T07:09:03.928Z,4.10
2023-12-21T07:11:31.179Z,4.20
2023-12-21T07:13:58.153Z,4.20
2023-12-21T07:16:25.237Z,4.20
2023-12-21T07:18:52.216Z,4.30
2023-12-21T07:21:19.606Z,4.20
2023-12-21T07:23:46.620Z,4.20
2023-12-21T07:26:13.795Z,4.20
2023-12-21T07:28:41.843Z,4.20
2023-12-21T07:31:08.940Z,4.20
2023-12-21T07:33:35.879Z,4.30
2023-12-21T07:36:03.772Z,4.30
2023-12-21T07:38:30.709Z,4.20
2023-12-21T07:40:57.633Z,4.30
2023-12-21T07:43:24.529Z,4.30
2023-12-21T07:45:53.629Z,4.30
2023-12-21T07:48:20.616Z,4.30
2023-12-21T07:50:47.555Z,4.30
2023-12-21T07:53:14.366Z,4.40
2023-12-21T07:55:41.860Z,4.40
2023-12-21T07:58:08.744Z,4.40
2023-12-21T08:00:35.614Z,4.40
2023-12-21T08:03:03.302Z,4.40
2023-12-21T08:05:30.220Z,4.40
2023-12-21T08:07:57.059Z,4.40
2023-12-21T08:10:23.993Z,4.50
2023-12-21T08:12:50.917Z,4.40
2023-12-21T08:15:18.729Z,4.40
2023-12-21T08:17:45.836Z,4.40
2023-12-21T08:20:13.885Z,4.50
2023-12-21T08:22:40.838Z,4.40
2023-12-21T08:25:10.528Z,4.50
2023-12-21T08:27:38.805Z,4.50
2023-12-21T08:30:07.493Z,4.60
2023-12-21T08:32:34.602Z,4.50
2023-12-21T08:35:01.575Z,4.40
2023-12-21T08:37:28.825Z,4.50
2023-12-21T08:39:55.745Z,4.50
2023-12-21T08:42:23.204Z,4.50
2023-12-21T08:44:50.189Z,4.50
2023-12-21T08:47:17.013Z,4.50
2023-12-21T08:49:44.020Z,4.60
2023-12-21T08:52:13.626Z,4.60
2023-12-21T08:54:42.229Z,4.60
2023-12-21T08:57:11.102Z,4.60
2023-12-21T08:59:38.117Z,4.70
2023-12-21T09:02:04.990Z,4.60
2023-12-21T09:04:31.863Z,4.60
2023-12-21T09:06:58.749Z,4.60
2023-12-21T09:09:25.588Z,4.70
2023-12-21T09:11:52.485Z,4.70
2023-12-21T09:14:19.461Z,4.70
2023-12-21T09:16:46.515Z,4.70
2023-12-21T09:19:13.557Z,4.70
2023-12-21T09:21:41.955Z,4.70
2023-12-21T09:24:09.675Z,4.70
2023-12-21T09:26:36.544Z,4.80
2023-12-21T09:29:05.632Z,4.70
2023-12-21T09:31:33.226Z,4.70
2023-12-21T09:34:05.585Z,4.70
2023-12-21T09:36:32.812Z,4.70
2023-12-21T09:39:02.325Z,4.70
2023-12-21T09:41:29.493Z,4.70
2023-12-21T09:43:58.625Z,4.70
2023-12-21T09:46:28.930Z,4.70
2023-12-21T09:48:56.303Z,4.70
2023-12-21T09:51:26.059Z,4.70
2023-12-21T09:53:55.543Z,4.70
2023-12-21T09:56:23.475Z,4.80
2023-12-21T09:58:50.464Z,4.80
2023-12-21T10:01:19.060Z,4.80
2023-12-21T10:03:46.504Z,4.80
2023-12-21T10:06:14.269Z,4.80
2023-12-21T10:08:43.420Z,4.80
2023-12-21T10:11:13.265Z,4.80
2023-12-21T10:13:47.862Z,4.80
2023-12-21T10:16:14.954Z,4.90
2023-12-21T10:18:42.799Z,4.90
2023-12-21T10:21:10.076Z,5.00
2023-12-21T10:23:40.730Z,5.00
2023-12-21T10:26:07.943Z,4.90
2023-12-21T10:28:36.053Z,4.90
2023-12-21T10:31:05.323Z,4.90
2023-12-21T10:33:32.420Z,4.90
2023-12-21T10:35:59.817Z,4.90
2023-12-21T10:38:28.908Z,4.90
2023-12-21T10:40:55.892Z,4.90
2023-12-21T10:43:23.212Z,5.00
2023-12-21T10:45:50.922Z,5.00
2023-12-21T10:48:20.646Z,5.00
2023-12-21T10:50:51.803Z,5.00
2023-12-21T10:53:20.650Z,5.00
2023-12-21T10:55:50.380Z,5.00
2023-12-21T10:58:18.245Z,5.00
2023-12-21T11:00:46.187Z,5.00
2023-12-21T11:03:18.045Z,5.00
2023-12-21T11:05:46.224Z,5.00
2023-12-21T11:08:13.282Z,5.00
2023-12-21T11:10:40.335Z,5.10
2023-12-21T11:13:07.329Z,5.10
2023-12-21T11:15:34.381Z,5.10
2023-12-21T11:18:11.913Z,5.10
2023-12-21T11:20:51.760Z,5.10
2023-12-21T11:23:20.043Z,5.10
2023-12-21T11:25:58.922Z,5.30
2023-12-21T11:28:32.474Z,5.20
2023-12-21T11:30:59.802Z,5.20
2023-12-21T11:33:30.943Z,5.20
2023-12-21T11:35:58.897Z,5.20
2023-12-21T11:38:53.460Z,5.20
2023-12-21T11:41:25.116Z,5.20
2023-12-21T11:44:13.478Z,5.30
2023-12-21T11:46:41.574Z,5.40
2023-12-21T11:49:12.702Z,5.30
2023-12-21T11:51:50.435Z,5.30
2023-12-21T11:54:25.256Z,5.30
2023-12-21T11:57:09.784Z,5.30
2023-12-21T11:59:37.961Z,5.30
2023-12-21T12:02:12.110Z,5.40
2023-12-21T12:04:39.934Z,5.40
2023-12-21T12:07:08.050Z,5.40
2023-12-21T12:09:35.851Z,5.40
2023-12-21T12:12:02.792Z,5.40
2023-12-21T12:14:29.641Z,5.40
2023-12-21T12:16:56.544Z,5.40
2023-12-21T12:19:28.340Z,5.40
2023-12-21T12:21:55.608Z,5.40
2023-12-21T12:24:23.137Z,5.40
2023-12-21T12:26:50.454Z,5.40
2023-12-21T12:29:18.234Z,5.40
2023-12-21T12:31:46.140Z,5.40
2023-12-21T12:34:13.786Z,5.40
2023-12-21T12:36:41.050Z,5.40
2023-12-21T12:39:11.231Z,5.40
2023-12-21T12:41:39.058Z,5.40
2023-12-21T12:44:05.990Z,5.40
2023-12-21T12:46:32.984Z,5.40
2023-12-21T12:48:59.927Z,5.40
2023-12-21T12:51:26.932Z,5.40
2023-12-21T12:53:53.887Z,5.40
2023-12-21T12:56:20.760Z,5.40
2023-12-21T12:58:56.080Z,5.50
2023-12-21T13:01:28.738Z,5.40
2023-12-21T13:03:57.584Z,5.40
2023-12-21T13:06:24.707Z,5.40
2023-12-21T13:08:51.654Z,5.40
2023-12-21T13:11:18.563Z,5.40
2023-12-21T13:13:45.475Z,5.50
2023-12-21T13:16:13.056Z,5.40
2023-12-21T13:18:40.014Z,5.40
2023-12-21T13:21:06.955Z,5.40
2023-12-21T13:23:33.796Z,5.40
2023-12-21T13:26:00.718Z,5.40
2023-12-21T13:28:27.638Z,5.40
2023-12-21T13:30:55.840Z,5.40
2023-12-21T13:33:22.838Z,5.60
2023-12-21T13:35:49.776Z,5.40
2023-12-21T13:38:17.155Z,5.50
2023-12-21T13:40:44.364Z,5.50
2023-12-21T13:43:12.223Z,5.40
2023-12-21T13:45:39.081Z,5.40
2023-12-21T13:48:09.335Z,5.40
2023-12-21T13:50:36.568Z,5.40
2023-12-21T13:53:03.977Z,5.50
2023-12-21T13:55:31.477Z,5.50
2023-12-21T13:57:58.321Z,5.50
2023-12-21T14:00:25.452Z,5.40
2023-12-21T14:02:53.005Z,5.40
2023-12-21T14:05:20.020Z,5.70
2023-12-21T14:07:47.452Z,5.40
2023-12-21T14:10:14.735Z,5.50
2023-12-21T14:12:41.610Z,5.50
2023-12-21T14:15:09.128Z,5.50
2023-12-21T14:17:36.231Z,5.50
2023-12-21T14:20:03.901Z,5.50
2023-12-21T14:22:31.075Z,5.50
2023-12-21T14:24:58.686Z,5.50
2023-12-21T14:27:26.200Z,5.50
2023-12-21T14:29:53.131Z,5.50
2023-12-21T14:32:20.080Z,5.50
2023-12-21T14:34:46.991Z,5.50
2023-12-21T14:37:15.503Z,5.50
2023-12-21T14:39:42.607Z,5.50
2023-12-21T14:42:09.505Z,5.50
2023-12-21T14:44:39.597Z,5.50
2023-12-21T14:47:06.927Z,5.50
2023-12-21T14:49:34.133Z,5.50
2023-12-21T14:52:02.580Z,5.50
2023-12-21T14:54:30.485Z,5.50
2023-12-21T14:56:58.717Z,5.60
2023-12-21T14:59:26.067Z,5.60
2023-12-21T15:01:53.161Z,5.60
2023-12-21T15:04:20.392Z,5.60
2023-12-21T15:06:47.333Z,5.60
2023-12-21T15:09:15.009Z,5.60
2023-12-21T15:11:41.984Z,5.60
2023-12-21T15:14:08.920Z,5.60
2023-12-21T15:16:35.816Z,5.60
2023-12-21T15:19:02.904Z,5.60
2023-12-21T15:21:29.765Z,5.60
2023-12-21T15:23:56.735Z,5.60
2023-12-21T15:26:24.307Z,5.60
2023-12-21T15:28:51.145Z,5.60
2023-12-21T15:31:18.335Z,5.60
2023-12-21T15:33:45.251Z,5.60
2023-12-21T15:36:12.758Z,5.60
2023-12-21T15:38:39.833Z,5.60
2023-12-21T15:41:20.057Z,5.60
2023-12-21T15:43:47.545Z,5.60
2023-12-21T15:46:17.706Z,5.60
2023-12-21T15:48:44.839Z,5.70
2023-12-21T15:51:12.241Z,5.70
2023-12-21T15:53:39.174Z,5.70
2023-12-21T15:56:07.048Z,5.70
2023-12-21T15:58:37.114Z,5.70
2023-12-21T16:01:05.249Z,5.70
2023-12-21T16:03:32.747Z,5.70
2023-12-21T16:06:01.175Z,5.70
2023-12-21T16:08:28.204Z,5.70
2023-12-21T16:10:55.115Z,5.70
2023-12-21T16:13:22.063Z,5.70
2023-12-21T16:15:48.959Z,5.70
2023-12-21T16:18:15.955Z,5.70
2023-12-21T16:20:42.958Z,5.70
2023-12-21T16:23:10.120Z,5.70
2023-12-21T16:25:37.101Z,5.70
2023-12-21T16:28:07.151Z,5.70
2023-12-21T16:30:36.788Z,5.80
2023-12-21T16:33:04.290Z,5.80
2023-12-21T16:35:31.302Z,5.80
2023-12-21T16:37:58.221Z,5.80
2023-12-21T16:40:25.113Z,5.80
2023-12-21T16:42:52.081Z,5.80
2023-12-21T16:45:19.122Z,5.80
2023-12-21T16:47:46.145Z,5.80
2023-12-21T16:50:13.302Z,5.80
2023-12-21T16:52:40.317Z,5.80
2023-12-21T16:55:07.557Z,5.80
2023-12-21T16:57:35.470Z,5.80
2023-12-21T17:00:06.478Z,5.80
2023-12-21T17:02:33.723Z,5.80
2023-12-21T17:05:01.913Z,5.80
2023-12-21T17:07:29.045Z,5.80
2023-12-21T17:09:56.805Z,5.80
2023-12-21T17:12:24.005Z,5.80
2023-12-21T17:14:50.951Z,5.80
2023-12-21T17:17:17.790Z,5.90
2023-12-21T17:19:45.310Z,5.90
2023-12-21T17:22:12.709Z,5.90
2023-12-21T17:24:39.690Z,5.90
2023-12-21T17:27:06.565Z,5.90
2023-12-21T17:29:33.478Z,5.90
2023-12-21T17:32:03.154Z,6.00
2023-12-21T17:34:30.045Z,6.00
2023-12-21T17:36:58.423Z,6.00
2023-12-21T17:39:25.237Z,6.00
2023-12-21T17:41:52.087Z,6.00
2023-12-21T17:44:19.092Z,6.00
2023-12-21T17:46:46.241Z,6.00
2023-12-21T17:49:13.467Z,6.00
2023-12-21T17:51:40.413Z,6.00
2023-12-21T17:54:07.262Z,6.00
2023-12-21T17:56:34.162Z,6.10
2023-12-21T17:59:01.162Z,6.30
2023-12-21T18:01:28.172Z,6.10
2023-12-21T18:03:55.250Z,6.10
2023-12-21T18:06:22.332Z,6.10
2023-12-21T18:08:49.550Z,6.10
2023-12-21T18:11:16.609Z,6.10
2023-12-21T18:13:43.755Z,6.10
2023-12-21T18:16:11.103Z,6.10
2023-12-21T18:18:38.083Z,6.10
2023-12-21T18:21:05.312Z,6.20
2023-12-21T18:23:32.218Z,6.10
2023-12-21T18:25:59.212Z,6.20
2023-12-21T18:28:26.221Z,6.10
2023-12-21T18:30:53.152Z,6.20
2023-12-21T18:33:20.182Z,6.20
2023-12-21T18:35:47.075Z,6.20
2023-12-21T18:38:13.956Z,6.20
2023-12-21T18:40:42.718Z,6.30
2023-12-21T18:43:12.875Z,6.30
2023-12-21T18:45:39.889Z,6.30
2023-12-21T18:48:07.035Z,6.20
2023-12-21T18:50:33.908Z,6.30
2023-12-21T18:53:00.947Z,6.20
2023-12-21T18:55:27.836Z,6.20
2023-12-21T18:57:54.671Z,6.40
2023-12-21T19:00:21.529Z,6.20
2023-12-21T19:02:48.375Z,6.20
2023-12-21T19:05:15.484Z,6.20
2023-12-21T19:07:42.405Z,6.20
2023-12-21T19:10:10.555Z,6.20
2023-12-21T19:12:37.401Z,6.20
2023-12-21T19:15:04.649Z,6.20
2023-12-21T19:17:33.147Z,6.20
2023-12-21T19:20:00.324Z,6.20
2023-12-21T19:22:27.278Z,6.20
2023-12-21T19:24:54.147Z,6.20
2023-12-21T19:27:21.063Z,6.20
2023-12-21T19:29:47.883Z,6.20
2023-12-21T19:32:14.850Z,6.30
2023-12-21T19:34:41.780Z,6.20
2023-12-21T19:37:10.390Z,6.20
2023-12-21T19:39:37.477Z,6.20
2023-12-21T19:42:04.418Z,6.20
2023-12-21T19:44:32.109Z,6.20
2023-12-21T19:46:59.631Z,6.20
2023-12-21T19:49:26.632Z,6.20
2023-12-21T19:51:53.545Z,6.20
2023-12-21T19:54:20.613Z,6.20
2023-12-21T19:56:47.729Z,6.20
2023-12-21T19:59:19.955Z,6.30
2023-12-21T20:01:51.242Z,6.20
2023-12-21T20:04:19.367Z,6.20
2023-12-21T20:06:46.861Z,6.20
2023-12-21T20:09:15.395Z,6.20
2023-12-21T20:11:43.012Z,6.10
2023-12-21T20:14:10.929Z,6.10
2023-12-21T20:16:38.142Z,6.10
2023-12-21T20:19:05.451Z,6.00
2023-12-21T20:21:33.303Z,6.00
2023-12-21T20:24:09.607Z,6.00
2023-12-21T20:26:37.471Z,6.00
2023-12-21T20:29:04.727Z,6.00
2023-12-21T20:31:32.532Z,5.90
2023-12-21T20:33:59.490Z,5.90
2023-12-21T20:36:26.472Z,5.90
2023-12-21T20:38:53.438Z,5.90
2023-12-21T20:41:20.756Z,5.90
2023-12-21T20:43:49.636Z,5.90
2023-12-21T20:46:16.700Z,5.90
2023-12-21T20:48:43.723Z,5.90
2023-12-21T20:51:10.795Z,5.90
2023-12-21T20:53:37.645Z,5.90
2023-12-21T20:56:04.852Z,5.90
2023-12-21T20:58:32.618Z,5.90
2023-12-21T21:01:02.326Z,5.90
2023-12-21T21:03:29.239Z,5.90
2023-12-21T21:05:56.605Z,5.90
2023-12-21T21:08:23.689Z,5.90
2023-12-21T21:10:51.376Z,5.90
2023-12-21T21:13:18.994Z,5.90
2023-12-21T21:15:46.590Z,5.90
2023-12-21T21:18:13.840Z,6.00
2023-12-21T21:20:41.296Z,5.90
2023-12-21T21:23:08.291Z,5.90
2023-12-21T21:25:35.172Z,5.90
2023-12-21T21:28:02.023Z,5.90
2023-12-21T21:30:55.532Z,5.90
2023-12-21T21:33:15.981Z,6.00
2023-12-21T21:35:42.914Z,6.00
2023-12-21T21:38:09.793Z,6.00
2023-12-21T21:40:36.844Z,6.00
2023-12-21T21:43:04.214Z,6.00
2023-12-21T21:45:31.541Z,5.90
2023-12-21T21:47:58.965Z,5.70
2023-12-21T21:50:26.593Z,5.70
2023-12-21T21:52:53.505Z,5.50
2023-12-21T21:55:20.519Z,5.40
2023-12-21T21:57:47.648Z,5.40
2023-12-21T22:00:15.357Z,5.40
2023-12-21T22:02:42.741Z,5.30
2023-12-21T22:05:09.795Z,5.40
2023-12-21T22:07:38.660Z,5.30
2023-12-21T22:10:05.922Z,5.30
2023-12-21T22:12:32.767Z,5.40
2023-12-21T22:14:59.684Z,5.30
2023-12-21T22:17:26.561Z,5.40
2023-12-21T22:19:53.554Z,5.30
2023-12-21T22:22:20.442Z,5.30
2023-12-21T22:24:47.292Z,5.40
2023-12-21T22:27:14.131Z,5.40
2023-12-21T22:29:41.002Z,5.40
2023-12-21T22:32:08.865Z,5.40
2023-12-21T22:34:35.732Z,5.40
2023-12-21T22:37:02.718Z,5.40
2023-12-21T22:39:29.700Z,5.40
2023-12-21T22:41:56.618Z,5.30
2023-12-21T22:44:25.770Z,5.40
2023-12-21T22:46:55.504Z,5.30
2023-12-21T22:49:25.260Z,5.30
2023-12-21T22:51:52.165Z,5.40
2023-12-21T22:54:20.334Z,5.40
2023-12-21T22:56:47.258Z,5.40
2023-12-21T22:59:14.143Z,5.30
2023-12-21T23:01:41.045Z,5.10
2023-12-21T23:04:07.941Z,5.00
2023-12-21T23:06:36.954Z,4.80
2023-12-21T23:09:03.891Z,4.80
2023-12-21T23:11:31.177Z,4.70
2023-12-21T23:13:58.223Z,4.50
2023-12-21T23:16:25.213Z,4.40
2023-12-21T23:18:52.237Z,4.40
2023-12-21T23:21:19.777Z,4.40
2023-12-21T23:23:46.777Z,4.30
2023-12-21T23:26:13.690Z,4.30
2023-12-21T23:28:40.645Z,4.30
2023-12-21T23:31:07.487Z,4.30
2023-12-21T23:33:35.257Z,4.30
2023-12-21T23:36:02.348Z,4.40
2023-12-21T23:38:31.806Z,4.40
2023-12-21T23:41:02.855Z,4.40
2023-12-21T23:43:30.243Z,4.30
2023-12-21T23:45:57.301Z,4.30
2023-12-21T23:48:24.205Z,4.30
2023-12-21T23:50:51.171Z,4.20
2023-12-21T23:53:18.119Z,4.20
2023-12-21T23:55:45.025Z,4.20
2023-12-21T23:58:11.997Z,4.10
